Share

Roberts, IL (60962)

Open fencerow 2 Miles S of (KILROBER2) Elev 771 ft | 40.59 °N, 88.19 °W | Change Station

Current weather conditions updated 7 seconds ago

Clear
Clear
57.2 °F
Feels Like 57.2 °F
N
4.9
Wind Variable Wind from SSW
Gusts 6.0 mph
Sunrise 6:05 AM
Sunset 7:38 PM
Moon Waning Gibbous

Today is forecast to be nearly the same temperature as yesterday. Afternoon thundershowers.

Pressure 30.06 in
Visibility 10.0 miles
Clouds Clear
Dew Point 45 °F
Humidity 63%
Rainfall 0.00 in
Snow Depth Not available.
UV 0 out of 16
Pollen 10.50 out of 12
Air Quality Not available.
Flu Activity Local Activity
METAR KTIP 210615Z AUTO 00000KT 10SM CLR 15/06 A3006 RMK AO2 T01460062 TSNO

More Conditions Fewer Conditions

Pressure 30.06 in
Visibility 10.0 miles
Clouds Clear
Dew Point 45 °F
Humidity 63%
Rainfall 0.00 in
Snow Depth Not available.
UV 0 out of 16
Pollen 10.50 out of 12
Air Quality Not available.
Flu Activity Local Activity
METAR KTIP 210615Z AUTO 00000KT 10SM CLR 15/06 A3006 RMK AO2 T01460062 TSNO

More Conditions Fewer Conditions

10-Day Weather Forecast

Almanac

Astronomy

Apr. 21, 2014 Rise Set
Actual Time 6:05 AM CDT 7:38 PM CDT
Civil Twilight 5:36 AM CDT 8:07 PM CDT
Nautical Twilight 5:01 AM CDT 8:41 PM CDT
Astronomical Twilight 4:24 AM CDT 9:19 PM CDT
Moon 1:08 AM CDT 11:31 AM CDT
Length of Visible Light 14h 30m
Length of Day
13h 33m
Tomorrow will be 2m 29s longer.
Waning Gibbous, 62% of the Moon is Illuminated
Today
Waning Gibbous
Apr 22
Last Quarter
Apr 29
New
May 6
First Quarter
May 14
Full

Today's Extremes

State Highs State Lows

Community

  • Snowy Robin
    Snowy Robin
  • Sun Pillar and Geese
    Sun Pillar and Geese
  • Showers on the Way
    Showers on the Way
  • Easter Morning Fog
    Easter Morning Fog
  • Easter Dance
    Easter Dance

WunderPhotos

Upload Photos

1,703,567 photos uploaded!

WunderBlogs® & News

Nearby

Snow Depth

Station Depth Elevation
No new snow has been reported.

Coastal Water Temperatures

Place Temperature
No Stations Reporting

Earthquake Activity

City Distance Mag. Time & Date
No recent earthquake activity has been reported nearby.
Minimum magnitude displayed is 2.5.

Nearby Weather Stations

Station Location Temp. Dew Point Humidity Wind Precip. Elev Updated Type
Open fencerow 2 Miles S of, Roberts, IL 57.2 °F 45 °F 63% SSW  at  4.9 mph 0.00 in / hr 771 ft 1:22 AM CDT Rapid Fire
FARM 4 MILES N.E. OF TOWN, PIPER CITY, IL 57.3 °F 46 °F 66% South  at  5.0 mph - / hr 668 ft 1:18 AM CDT Normal
East Lynn/Hoopeston, Hoopeston, IL 59.5 °F 43 °F 54% South  at  4.7 mph - / hr 699 ft 1:19 AM CDT Normal

Show More Stations Show Fewer Stations

What do you think?

We're not finished. Please let us know what you like, what you don't like, and what you are still missing.